Cottonport, Louisiana
Current Conditions -  °F | °C
As of 4:35 PM on Monday 22 Dec 2014 (Local Time) from KOPL Reporting Station
Scattered Clouds Scattered Clouds  
Wind Chill: 70°   Ceiling: Unl
Heat Index: 70°   Visibility: 10mi
Dew Point: 61°   Wind: 13mph
Humidity: 73%   Direction: 220°SW
Pressure: 29.65"   Gusts: 25mph
Location:  30.98°N, 92.05°W
Report Text: KOPL 222235Z AUTO 22011G22KT 10SM SCT029 SCT034 21/16 A2965 RMK AO2 T02120161
Loading
Personal Weather Stations






























Interactive Weather Map New forecast layout! Learn more

10-Day Weather Forecast

Advertisements
Track Severe Weather on mobile